createdAt,value
2022-10-26T00:04:52.801Z,0
2022-10-26T00:09:53.303Z,0
2022-10-26T00:14:52.915Z,0
2022-10-26T00:24:53.399Z,0
2022-10-26T00:29:53.392Z,0
2022-10-26T00:34:54.656Z,0
2022-10-26T00:39:53.186Z,0
2022-10-26T00:44:53.146Z,0
2022-10-26T00:49:52.810Z,0
2022-10-26T00:54:52.908Z,0
2022-10-26T00:59:52.828Z,0
2022-10-26T01:04:52.840Z,0
2022-10-26T01:10:06.244Z,0
2022-10-26T01:14:52.846Z,0
2022-10-26T01:19:52.828Z,0
2022-10-26T01:24:52.847Z,0
2022-10-26T01:29:52.820Z,0
2022-10-26T01:34:52.809Z,0
2022-10-26T01:39:52.849Z,0
2022-10-26T01:44:52.878Z,0
2022-10-26T01:49:52.842Z,0
2022-10-26T01:54:52.873Z,0
2022-10-26T01:59:52.818Z,0
2022-10-26T02:04:52.915Z,0
2022-10-26T02:10:22.199Z,0
2022-10-26T02:14:52.850Z,0
2022-10-26T02:19:52.786Z,0
2022-10-26T02:24:52.855Z,0
2022-10-26T02:29:52.845Z,0
2022-10-26T02:34:52.830Z,0
2022-10-26T02:39:52.816Z,0
2022-10-26T02:44:52.791Z,0
2022-10-26T02:49:52.867Z,0
2022-10-26T02:54:52.891Z,0
2022-10-26T02:59:52.884Z,0
2022-10-26T03:04:52.874Z,0
2022-10-26T03:10:00.367Z,0
2022-10-26T03:14:52.869Z,0
2022-10-26T03:19:52.839Z,0
2022-10-26T03:24:52.876Z,0
2022-10-26T03:29:53.024Z,0
2022-10-26T03:34:52.959Z,0
2022-10-26T03:39:52.919Z,0
2022-10-26T03:44:52.922Z,0
2022-10-26T03:49:52.985Z,0
2022-10-26T03:54:52.830Z,0
2022-10-26T03:59:52.858Z,0
2022-10-26T04:04:52.887Z,0
2022-10-26T04:10:11.305Z,0
2022-10-26T04:14:53.014Z,0
2022-10-26T04:19:52.854Z,0
2022-10-26T04:24:52.830Z,0
2022-10-26T04:29:52.837Z,0
2022-10-26T04:34:53.937Z,0
2022-10-26T04:39:52.923Z,0
2022-10-26T04:54:53.090Z,0
2022-10-26T04:59:52.844Z,0
2022-10-26T05:04:52.864Z,0
2022-10-26T05:09:52.891Z,0
2022-10-26T05:14:52.883Z,0
2022-10-26T05:19:52.921Z,0
2022-10-26T05:24:52.876Z,0
2022-10-26T05:29:52.957Z,0
2022-10-26T05:34:52.881Z,0
2022-10-26T05:39:52.836Z,0
2022-10-26T05:44:52.938Z,0
2022-10-26T05:49:53.098Z,0
2022-10-26T05:54:52.993Z,257
2022-10-26T05:59:52.889Z,262
2022-10-26T06:04:52.951Z,263
2022-10-26T06:09:52.958Z,269
2022-10-26T06:14:52.998Z,293
2022-10-26T06:19:52.908Z,307
2022-10-26T06:24:52.934Z,353
2022-10-26T06:29:52.941Z,318
2022-10-26T06:34:52.931Z,425
2022-10-26T06:39:54.104Z,614
2022-10-26T06:44:52.953Z,777
2022-10-26T06:49:53.195Z,739
2022-10-26T06:54:53.077Z,447
2022-10-26T06:59:53.036Z,442
2022-10-26T07:04:52.977Z,685
2022-10-26T07:09:53.617Z,472
2022-10-26T07:14:52.998Z,448
2022-10-26T07:19:52.982Z,393
2022-10-26T07:24:52.966Z,356
2022-10-26T07:29:52.947Z,354
2022-10-26T07:34:52.965Z,336
2022-10-26T07:39:53.048Z,326
2022-10-26T07:44:52.949Z,334
2022-10-26T07:49:53.327Z,320
2022-10-26T07:54:52.953Z,323
2022-10-26T07:59:52.890Z,338
2022-10-26T08:04:52.963Z,370
2022-10-26T08:09:52.950Z,439
2022-10-26T08:20:36.679Z,528
2022-10-26T08:24:52.887Z,487
2022-10-26T08:29:52.890Z,510
2022-10-26T08:34:52.889Z,600
2022-10-26T08:39:54.642Z,1220
2022-10-26T08:44:52.911Z,1379
2022-10-26T08:49:52.922Z,1091
2022-10-26T08:54:52.989Z,1427
2022-10-26T08:59:52.905Z,1215
2022-10-26T09:04:53.042Z,898
2022-10-26T09:09:52.938Z,827
2022-10-26T09:14:52.941Z,667
2022-10-26T09:24:52.905Z,690
2022-10-26T09:29:52.887Z,644
2022-10-26T09:34:52.979Z,509
2022-10-26T09:39:52.994Z,489
2022-10-26T09:44:53.067Z,511
2022-10-26T09:49:53.016Z,662
2022-10-26T09:54:52.943Z,875
2022-10-26T09:59:52.985Z,725
2022-10-26T10:04:52.933Z,665
2022-10-26T10:09:52.937Z,879
2022-10-26T10:14:52.961Z,1297
2022-10-26T10:19:56.499Z,2086
2022-10-26T10:24:52.882Z,1563
2022-10-26T10:29:52.977Z,1689
2022-10-26T10:34:52.914Z,1207
2022-10-26T10:39:52.914Z,1025
2022-10-26T10:44:52.933Z,875
2022-10-26T10:49:52.932Z,958
2022-10-26T10:54:52.959Z,702
2022-10-26T10:59:52.871Z,668
2022-10-26T11:04:52.904Z,1050
2022-10-26T11:14:53.046Z,658
2022-10-26T11:19:53.077Z,503
2022-10-26T11:24:52.909Z,465
2022-10-26T11:29:52.956Z,456
2022-10-26T11:34:52.990Z,474
2022-10-26T11:39:53.039Z,486
2022-10-26T11:44:53.190Z,522
2022-10-26T11:49:52.971Z,542
2022-10-26T11:54:53.087Z,623
2022-10-26T11:59:52.956Z,733
2022-10-26T12:04:53.067Z,838
2022-10-26T12:09:52.922Z,883
2022-10-26T12:14:52.907Z,1017
2022-10-26T12:19:53.128Z,965
2022-10-26T12:24:52.992Z,746
2022-10-26T12:29:52.932Z,619
2022-10-26T12:34:52.992Z,457
2022-10-26T12:39:52.977Z,406
2022-10-26T12:44:53.020Z,544
2022-10-26T12:49:52.980Z,857
2022-10-26T12:54:53.000Z,918
2022-10-26T12:59:52.982Z,745
2022-10-26T13:04:53.022Z,560
2022-10-26T13:09:52.922Z,652
2022-10-26T13:14:52.927Z,641
2022-10-26T13:24:53.013Z,592
2022-10-26T13:29:52.945Z,625
2022-10-26T13:34:52.922Z,687
2022-10-26T13:39:52.952Z,671
2022-10-26T13:44:52.981Z,615
2022-10-26T13:49:52.964Z,790
2022-10-26T13:54:52.930Z,994
2022-10-26T13:59:53.023Z,745
2022-10-26T14:04:53.054Z,630
2022-10-26T14:09:53.030Z,517
2022-10-26T14:14:52.994Z,597
2022-10-26T14:19:56.090Z,600
2022-10-26T14:24:53.155Z,603
2022-10-26T14:30:17.081Z,589
2022-10-26T14:34:52.929Z,579
2022-10-26T14:39:52.966Z,570
2022-10-26T14:44:53.082Z,558
2022-10-26T14:49:53.041Z,343
2022-10-26T14:54:52.967Z,325
2022-10-26T14:59:52.970Z,315
2022-10-26T15:04:52.981Z,319
2022-10-26T15:09:52.969Z,318
2022-10-26T15:14:53.114Z,327
2022-10-26T15:19:56.266Z,324
2022-10-26T15:24:53.095Z,329
2022-10-26T15:29:53.128Z,315
2022-10-26T15:34:52.987Z,311
2022-10-26T15:39:52.972Z,298
2022-10-26T15:44:53.048Z,288
2022-10-26T15:49:52.972Z,279
2022-10-26T15:54:53.060Z,269
2022-10-26T15:59:52.983Z,261
2022-10-26T16:04:53.037Z,258
2022-10-26T16:09:52.995Z,256
2022-10-26T16:15:04.911Z,0
2022-10-26T16:19:56.529Z,0
2022-10-26T16:24:53.096Z,0
2022-10-26T16:29:53.002Z,0
2022-10-26T16:34:53.046Z,0
2022-10-26T16:39:53.013Z,0
2022-10-26T16:44:53.398Z,0
2022-10-26T16:49:52.989Z,0
2022-10-26T16:54:52.973Z,0
2022-10-26T16:59:52.955Z,0
2022-10-26T17:04:53.069Z,0
2022-10-26T17:09:53.020Z,0
2022-10-26T17:14:53.017Z,0
2022-10-26T17:19:59.967Z,0
2022-10-26T17:24:52.983Z,0
2022-10-26T17:29:53.111Z,0
2022-10-26T17:34:53.163Z,0
2022-10-26T17:39:53.026Z,0
2022-10-26T17:44:53.017Z,0
2022-10-26T17:49:53.082Z,0
2022-10-26T17:54:53.002Z,0
2022-10-26T17:59:53.043Z,0
2022-10-26T18:04:53.049Z,0
2022-10-26T18:09:53.046Z,0
2022-10-26T18:14:53.030Z,0
2022-10-26T18:19:59.373Z,0
2022-10-26T18:24:53.018Z,0
2022-10-26T18:29:52.987Z,0
2022-10-26T18:34:52.984Z,0
2022-10-26T18:39:53.007Z,0
2022-10-26T18:44:53.466Z,0
2022-10-26T18:49:53.147Z,0
2022-10-26T18:54:53.142Z,0
2022-10-26T18:59:54.769Z,0
2022-10-26T19:04:53.046Z,0
2022-10-26T19:09:53.154Z,0
2022-10-26T19:14:53.063Z,0
2022-10-26T19:19:57.075Z,0
2022-10-26T19:24:53.051Z,0
2022-10-26T19:29:53.001Z,0
2022-10-26T19:34:53.050Z,0
2022-10-26T19:39:53.059Z,0
2022-10-26T19:44:53.077Z,0
2022-10-26T19:49:53.090Z,0
2022-10-26T19:54:53.037Z,0
2022-10-26T19:59:54.130Z,0
2022-10-26T20:04:53.034Z,0
2022-10-26T20:09:53.067Z,0
2022-10-26T20:14:53.016Z,0
2022-10-26T20:19:56.708Z,0
2022-10-26T20:24:53.034Z,0
2022-10-26T20:29:53.838Z,0
2022-10-26T20:34:53.071Z,0
2022-10-26T20:39:53.202Z,0
2022-10-26T20:44:53.039Z,0
2022-10-26T20:49:53.045Z,0
2022-10-26T20:54:53.209Z,0
2022-10-26T20:59:53.016Z,0
2022-10-26T21:04:53.199Z,0
2022-10-26T21:09:53.074Z,0
2022-10-26T21:14:53.043Z,0
2022-10-26T21:24:53.150Z,0
2022-10-26T21:29:53.067Z,0
2022-10-26T21:34:53.057Z,0
2022-10-26T21:39:53.056Z,0
2022-10-26T21:44:53.113Z,0
2022-10-26T21:49:53.090Z,0
2022-10-26T21:54:53.108Z,0
2022-10-26T21:59:53.161Z,0
2022-10-26T22:04:53.038Z,0
2022-10-26T22:10:07.804Z,0
2022-10-26T22:14:53.112Z,0
2022-10-26T22:19:53.287Z,0
2022-10-26T22:24:55.249Z,0
2022-10-26T22:29:53.077Z,0
2022-10-26T22:35:00.226Z,0
2022-10-26T22:39:53.087Z,0
2022-10-26T22:44:53.056Z,0
2022-10-26T22:49:53.082Z,0
2022-10-26T22:54:53.067Z,0
2022-10-26T22:59:53.088Z,0
2022-10-26T23:04:53.064Z,0
2022-10-26T23:09:53.092Z,0
2022-10-26T23:14:53.138Z,0
2022-10-26T23:19:56.968Z,0
2022-10-26T23:24:53.092Z,0
2022-10-26T23:29:53.215Z,0
2022-10-26T23:34:53.212Z,0
2022-10-26T23:39:53.191Z,0
2022-10-26T23:44:53.177Z,0
2022-10-26T23:49:53.083Z,0
2022-10-26T23:54:53.177Z,0
2022-10-26T23:59:53.043Z,0
